Time;durP1;ratioP1;P1;durP2;ratioP2;P2;SDS_P1;SDS_P2;PMS_P1;PMS_P2;Temp;Humidity;BMP_temperature;BMP_pressure;BME280_temperature;BME280_humidity;BME280_pressure;Samples;Min_cycle;Max_cycle;Signal;HPM_P1;HPM_P2
2023/06/26 00:00:08;;;;;;;2.60;2.40;;;;;;;;;;5112207;28;20208;-78
2023/06/26 00:02:35;;;;;;;5.20;2.73;;;;;;;;;;5094862;28;20222;-78
2023/06/26 00:05:03;;;;;;;3.50;3.13;;;;;;;;;;5102287;28;20853;-78
2023/06/26 00:07:30;;;;;;;3.10;2.80;;;;;;;;;;5111876;28;20294;-78
2023/06/26 00:09:58;;;;;;;3.50;3.10;;;;;;;;;;5112068;28;20235;-78
2023/06/26 00:12:25;;;;;;;3.87;3.50;;;;;;;;;;5112073;28;20207;-78
2023/06/26 00:14:53;;;;;;;3.33;3.03;;;;;;;;;;5111996;28;20588;-79
2023/06/26 00:17:20;;;;;;;3.40;3.10;;;;;;;;;;5111614;28;20192;-78
2023/06/26 00:19:47;;;;;;;3.07;2.77;;;;;;;;;;5111930;28;20585;-78
2023/06/26 00:22:13;;;;;;;2.40;2.20;;;;;;;;;;5111736;28;20693;-78
2023/06/26 00:24:40;;;;;;;3.97;2.63;;;;;;;;;;5099317;28;20615;-78
2023/06/26 00:27:07;;;;;;;2.83;2.37;;;;;;;;;;5105135;28;20654;-78
2023/06/26 00:29:35;;;;;;;1.90;1.80;;;;;;;;;;5103377;28;20203;-78
2023/06/26 00:32:03;;;;;;;4.90;2.10;;;;;;;;;;5092316;28;20188;-78
2023/06/26 00:34:30;;;;;;;1.97;1.80;;;;;;;;;;5091616;28;20204;-78
2023/06/26 00:36:57;;;;;;;2.07;1.87;;;;;;;;;;5104905;28;20208;-78
2023/06/26 00:39:25;;;;;;;2.17;1.80;;;;;;;;;;5104224;28;20208;-77
2023/06/26 00:41:53;;;;;;;2.37;2.10;;;;;;;;;;5091459;28;20203;-77
2023/06/26 00:44:20;;;;;;;2.10;2.00;;;;;;;;;;5104601;28;20203;-78
2023/06/26 00:46:47;;;;;;;3.80;2.80;;;;;;;;;;5091224;28;20196;-78
2023/06/26 00:49:15;;;;;;;2.10;1.90;;;;;;;;;;5104765;28;20195;-79
2023/06/26 00:51:42;;;;;;;2.70;2.50;;;;;;;;;;5091259;28;20224;-79
2023/06/26 00:54:09;;;;;;;1.73;1.63;;;;;;;;;;5104602;28;20206;-78
2023/06/26 00:56:36;;;;;;;1.90;1.43;;;;;;;;;;5111231;28;20762;-78
2023/06/26 00:59:03;;;;;;;1.53;1.43;;;;;;;;;;5110045;28;20269;-78
2023/06/26 01:01:30;;;;;;;2.63;1.90;;;;;;;;;;5091037;28;20204;-79
2023/06/26 01:03:57;;;;;;;1.43;1.30;;;;;;;;;;5104242;28;20210;-79
2023/06/26 01:06:27;;;;;;;2.40;1.70;;;;;;;;;;5099181;28;20246;-79
2023/06/26 01:08:54;;;;;;;1.53;1.43;;;;;;;;;;5097131;28;20207;-79
2023/06/26 01:11:20;;;;;;;4.30;1.70;;;;;;;;;;5111147;28;20269;-79
2023/06/26 01:13:47;;;;;;;2.97;1.70;;;;;;;;;;5097144;28;20615;-79
2023/06/26 01:16:15;;;;;;;1.80;1.70;;;;;;;;;;5111221;28;20195;-80
2023/06/26 01:18:43;;;;;;;6.37;1.83;;;;;;;;;;5097031;28;20209;-80
2023/06/26 01:21:11;;;;;;;1.63;1.53;;;;;;;;;;5101437;28;20240;-80
2023/06/26 01:23:55;;;;;;;2.23;1.53;;;;;;;;;;5103747;28;20201;-80
2023/06/26 01:26:24;;;;;;;2.13;1.87;;;;;;;;;;5090822;28;20235;-80
2023/06/26 01:28:52;;;;;;;2.20;2.00;;;;;;;;;;5112957;28;20291;-80
2023/06/26 01:31:20;;;;;;;1.97;1.87;;;;;;;;;;5115143;28;20202;-80
2023/06/26 01:33:47;;;;;;;2.43;2.20;;;;;;;;;;5108731;28;20204;-80
2023/06/26 01:36:14;;;;;;;2.43;2.23;;;;;;;;;;5094817;28;20203;-80
2023/06/26 01:38:41;;;;;;;2.93;2.20;;;;;;;;;;5094886;28;20200;-80
2023/06/26 01:41:08;;;;;;;2.80;2.27;;;;;;;;;;5108184;28;20596;-80
2023/06/26 01:43:42;;;;;;;3.90;2.27;;;;;;;;;;5101965;28;20202;-80
2023/06/26 01:46:13;;;;;;;2.40;2.20;;;;;;;;;;5100829;28;20228;-79
2023/06/26 01:48:46;;;;;;;3.70;2.03;;;;;;;;;;5114619;28;20660;-79
2023/06/26 01:51:14;;;;;;;3.93;2.53;;;;;;;;;;5101338;28;20783;-79
2023/06/26 01:53:46;;;;;;;2.40;2.20;;;;;;;;;;5114393;28;20209;-78
2023/06/26 01:56:14;;;;;;;2.23;1.90;;;;;;;;;;5097131;28;20207;-79
2023/06/26 01:58:45;;;;;;;2.33;2.13;;;;;;;;;;5105482;28;20203;-79
2023/06/26 02:01:12;;;;;;;2.30;2.10;;;;;;;;;;5095333;28;20203;-79
2023/06/26 02:03:39;;;;;;;2.73;2.23;;;;;;;;;;5106657;28;20199;-79
2023/06/26 02:06:06;;;;;;;2.60;2.30;;;;;;;;;;5100178;28;20230;-79
2023/06/26 02:08:33;;;;;;;3.37;1.97;;;;;;;;;;5114683;28;20188;-79
2023/06/26 02:10:59;;;;;;;2.03;1.93;;;;;;;;;;5113792;28;20214;-79
2023/06/26 02:13:26;;;;;;;2.30;2.10;;;;;;;;;;5101441;28;20205;-78
2023/06/26 02:15:54;;;;;;;2.40;2.20;;;;;;;;;;5107469;28;20200;-79
2023/06/26 02:18:22;;;;;;;2.80;2.00;;;;;;;;;;5094119;28;20253;-79
2023/06/26 02:20:49;;;;;;;1.87;1.77;;;;;;;;;;5107440;28;20671;-78
2023/06/26 02:23:15;;;;;;;2.00;1.90;;;;;;;;;;5094163;28;20205;-79
2023/06/26 02:25:42;;;;;;;2.40;2.00;;;;;;;;;;5113808;28;20788;-78
2023/06/26 02:28:09;;;;;;;2.50;2.30;;;;;;;;;;5100442;28;20204;-78
2023/06/26 02:30:38;;;;;;;4.23;2.17;;;;;;;;;;5114050;28;20214;-79
2023/06/26 02:33:06;;;;;;;2.57;2.37;;;;;;;;;;5113046;28;20264;-79
2023/06/26 02:35:33;;;;;;;3.53;2.40;;;;;;;;;;5101764;28;20700;-79
2023/06/26 02:38:00;;;;;;;2.47;2.27;;;;;;;;;;5099690;28;20226;-80
2023/06/26 02:40:27;;;;;;;2.60;2.40;;;;;;;;;;5104274;28;20752;-79
2023/06/26 02:42:54;;;;;;;2.30;2.10;;;;;;;;;;5106951;28;20204;-79
2023/06/26 02:45:20;;;;;;;2.43;2.23;;;;;;;;;;5104127;28;20234;-79
2023/06/26 02:47:47;;;;;;;2.80;2.50;;;;;;;;;;5113497;28;20204;-80
2023/06/26 02:50:15;;;;;;;2.87;2.57;;;;;;;;;;5113562;28;20679;-79
2023/06/26 02:52:42;;;;;;;3.73;2.47;;;;;;;;;;5113827;28;20228;-79
2023/06/26 02:55:09;;;;;;;2.47;2.27;;;;;;;;;;5110084;28;20208;-79
2023/06/26 02:57:38;;;;;;;2.37;2.17;;;;;;;;;;5093252;28;20201;-79
2023/06/26 03:00:08;;;;;;;4.67;2.77;;;;;;;;;;5093892;28;20204;-79
2023/06/26 03:02:34;;;;;;;2.10;2.00;;;;;;;;;;5105406;28;20205;-79
2023/06/26 03:05:02;;;;;;;2.40;2.20;;;;;;;;;;5107634;28;20211;-79
2023/06/26 03:07:30;;;;;;;2.80;2.60;;;;;;;;;;5105227;28;20235;-78
2023/06/26 03:09:57;;;;;;;2.70;2.13;;;;;;;;;;5105229;28;20196;-79
2023/06/26 03:12:24;;;;;;;2.50;2.30;;;;;;;;;;5099811;28;20235;-79
2023/06/26 03:14:51;;;;;;;6.07;2.30;;;;;;;;;;5112087;28;20203;-78
2023/06/26 03:17:18;;;;;;;2.87;2.67;;;;;;;;;;5107377;28;20197;-79
2023/06/26 03:19:44;;;;;;;3.27;2.73;;;;;;;;;;5093129;28;20313;-78
2023/06/26 03:22:11;;;;;;;3.40;3.07;;;;;;;;;;5098172;28;20249;-79
2023/06/26 03:24:39;;;;;;;3.10;2.40;;;;;;;;;;5100304;28;20290;-78
2023/06/26 03:27:09;;;;;;;3.10;2.80;;;;;;;;;;5092322;28;20216;-79
2023/06/26 03:29:36;;;;;;;4.57;2.80;;;;;;;;;;5104704;28;20200;-78
2023/06/26 03:32:06;;;;;;;2.97;2.67;;;;;;;;;;5093588;28;20204;-78
2023/06/26 03:34:33;;;;;;;2.73;2.47;;;;;;;;;;5092214;28;20205;-78
2023/06/26 03:37:00;;;;;;;3.97;2.83;;;;;;;;;;5104615;28;20196;-77
2023/06/26 03:39:27;;;;;;;3.10;2.77;;;;;;;;;;5105819;28;20202;-78
2023/06/26 03:41:55;;;;;;;4.43;3.17;;;;;;;;;;5112390;28;20211;-78
2023/06/26 03:44:23;;;;;;;2.70;2.50;;;;;;;;;;5112131;28;20203;-78
2023/06/26 03:46:50;;;;;;;8.23;3.47;;;;;;;;;;5099320;28;20231;-78
2023/06/26 03:49:17;;;;;;;3.50;2.50;;;;;;;;;;5112218;28;20207;-78
2023/06/26 03:51:44;;;;;;;3.73;2.60;;;;;;;;;;5111546;28;20223;-78
2023/06/26 03:54:10;;;;;;;2.53;2.23;;;;;;;;;;5098763;28;20680;-78
2023/06/26 03:56:37;;;;;;;2.97;2.60;;;;;;;;;;5104213;28;20690;-78
2023/06/26 03:59:06;;;;;;;3.60;2.60;;;;;;;;;;5092801;28;20200;-78
2023/06/26 04:01:33;;;;;;;2.83;2.43;;;;;;;;;;5112168;28;20207;-78
2023/06/26 04:04:01;;;;;;;3.33;2.40;;;;;;;;;;5098441;28;20253;-77
2023/06/26 04:06:28;;;;;;;3.00;2.33;;;;;;;;;;5102338;28;20236;-83
2023/06/26 04:08:55;;;;;;;2.77;2.50;;;;;;;;;;5104937;28;20200;-84
2023/06/26 04:11:22;;;;;;;5.87;2.70;;;;;;;;;;5066374;28;20200;-83
2023/06/26 04:13:50;;;;;;;2.50;2.30;;;;;;;;;;5081346;28;20584;-84
2023/06/26 04:16:18;;;;;;;3.40;2.30;;;;;;;;;;5092536;28;20278;-84
2023/06/26 04:18:45;;;;;;;2.43;2.17;;;;;;;;;;5100030;28;20211;-84
2023/06/26 04:21:14;;;;;;;5.63;2.50;;;;;;;;;;5097494;28;20690;-84
2023/06/26 04:23:42;;;;;;;3.20;2.47;;;;;;;;;;5111548;28;20291;-84
2023/06/26 04:26:14;;;;;;;2.60;2.23;;;;;;;;;;5111868;28;20615;-84
2023/06/26 04:28:41;;;;;;;2.60;2.40;;;;;;;;;;5081065;28;20634;-84
2023/06/26 04:31:09;;;;;;;2.57;2.30;;;;;;;;;;5082103;28;20208;-83
2023/06/26 04:33:38;;;;;;;4.50;3.03;;;;;;;;;;5073699;28;20232;-84
2023/06/26 04:36:05;;;;;;;4.17;2.80;;;;;;;;;;5072520;28;20208;-83
2023/06/26 04:38:32;;;;;;;4.07;2.37;;;;;;;;;;5096025;28;20200;-83
2023/06/26 04:40:59;;;;;;;5.27;3.00;;;;;;;;;;5090213;28;20207;-84
2023/06/26 04:43:26;;;;;;;2.60;2.40;;;;;;;;;;5103705;28;20258;-85
2023/06/26 04:45:53;;;;;;;3.50;3.20;;;;;;;;;;5083606;28;20219;-83
2023/06/26 04:48:20;;;;;;;2.93;2.63;;;;;;;;;;5097029;28;20218;-83
2023/06/26 04:50:53;;;;;;;2.80;2.53;;;;;;;;;;5099505;28;20199;-83
2023/06/26 04:53:21;;;;;;;2.60;2.40;;;;;;;;;;5097108;28;20253;-84
2023/06/26 04:55:47;;;;;;;3.73;2.87;;;;;;;;;;5098706;28;20203;-83
2023/06/26 04:58:14;;;;;;;4.27;2.83;;;;;;;;;;5090984;28;20582;-84
2023/06/26 05:00:42;;;;;;;3.33;3.03;;;;;;;;;;5091269;28;20682;-83
2023/06/26 05:03:09;;;;;;;3.67;2.67;;;;;;;;;;5097051;28;20256;-83
2023/06/26 05:05:36;;;;;;;2.60;2.27;;;;;;;;;;5097614;28;20212;-83
2023/06/26 05:08:16;;;;;;;2.80;2.60;;;;;;;;;;5110958;28;20662;-83
2023/06/26 05:10:44;;;;;;;5.70;2.83;;;;;;;;;;5097450;28;20235;-83
2023/06/26 05:13:11;;;;;;;3.47;2.97;;;;;;;;;;5110986;28;20234;-83
2023/06/26 05:15:38;;;;;;;3.40;2.97;;;;;;;;;;5097675;28;20247;-83
2023/06/26 05:18:06;;;;;;;3.30;2.60;;;;;;;;;;5110605;28;20195;-83
2023/06/26 05:20:33;;;;;;;2.70;2.50;;;;;;;;;;5097346;28;20202;-83
2023/06/26 05:23:00;;;;;;;2.50;2.23;;;;;;;;;;5101009;28;20670;-85
2023/06/26 05:25:29;;;;;;;3.00;2.67;;;;;;;;;;5091114;28;20210;-83
2023/06/26 05:27:56;;;;;;;3.23;2.80;;;;;;;;;;5102453;28;20238;-83
2023/06/26 05:30:25;;;;;;;5.47;3.13;;;;;;;;;;5092400;28;20279;-83
2023/06/26 05:32:52;;;;;;;4.40;2.60;;;;;;;;;;5090594;28;20436;-83
2023/06/26 05:35:21;;;;;;;3.73;3.00;;;;;;;;;;5110039;28;20249;-83
2023/06/26 05:37:49;;;;;;;3.20;2.90;;;;;;;;;;5097439;28;20201;-83
2023/06/26 05:40:17;;;;;;;3.80;2.73;;;;;;;;;;5110387;28;20670;-82
2023/06/26 05:42:46;;;;;;;3.53;3.10;;;;;;;;;;5110882;28;20199;-83
2023/06/26 05:45:13;;;;;;;3.50;2.60;;;;;;;;;;5104117;28;20215;-83
2023/06/26 05:47:41;;;;;;;3.23;2.93;;;;;;;;;;5104109;28;20225;-82
2023/06/26 05:50:11;;;;;;;3.47;3.17;;;;;;;;;;5098072;28;20202;-83
2023/06/26 05:52:39;;;;;;;4.00;3.23;;;;;;;;;;5097417;28;20277;-83
2023/06/26 05:55:07;;;;;;;3.93;3.60;;;;;;;;;;5111028;28;20203;-83
2023/06/26 05:57:36;;;;;;;4.10;3.20;;;;;;;;;;5096609;28;20204;-83
2023/06/26 06:00:10;;;;;;;8.50;3.50;;;;;;;;;;5111199;28;20590;-83
2023/06/26 06:02:38;;;;;;;4.33;3.70;;;;;;;;;;5093511;28;20722;-82
2023/06/26 06:05:06;;;;;;;4.37;3.97;;;;;;;;;;5089990;28;20207;-83
2023/06/26 06:07:33;;;;;;;4.43;3.33;;;;;;;;;;5107262;28;20709;-82
2023/06/26 06:10:00;;;;;;;3.33;3.03;;;;;;;;;;5100383;28;20649;-81
2023/06/26 06:12:27;;;;;;;3.90;3.20;;;;;;;;;;5103734;28;20697;-81
2023/06/26 06:14:54;;;;;;;3.47;3.17;;;;;;;;;;5093096;28;20204;-81
2023/06/26 06:17:23;;;;;;;4.90;3.07;;;;;;;;;;5107420;28;20196;-82
2023/06/26 06:19:52;;;;;;;3.80;3.07;;;;;;;;;;5105536;28;20260;-81
2023/06/26 06:22:19;;;;;;;3.63;3.33;;;;;;;;;;5108953;28;20200;-82
2023/06/26 06:24:46;;;;;;;3.27;2.97;;;;;;;;;;5094130;28;20262;-82
2023/06/26 06:27:13;;;;;;;3.57;2.47;;;;;;;;;;5107018;28;20230;-82
2023/06/26 06:29:40;;;;;;;3.57;2.53;;;;;;;;;;5094320;28;20239;-81
2023/06/26 06:32:07;;;;;;;3.60;2.73;;;;;;;;;;5107290;28;20193;-82
2023/06/26 06:34:38;;;;;;;2.50;2.30;;;;;;;;;;5106805;28;20260;-81
2023/06/26 06:37:05;;;;;;;3.03;2.67;;;;;;;;;;5100619;28;20287;-82
2023/06/26 06:39:32;;;;;;;2.50;2.30;;;;;;;;;;5100067;28;20660;-82
2023/06/26 06:41:59;;;;;;;2.90;2.40;;;;;;;;;;5100929;28;20210;-82
2023/06/26 06:44:25;;;;;;;3.63;2.40;;;;;;;;;;5112756;28;20207;-82
2023/06/26 06:46:52;;;;;;;3.10;2.23;;;;;;;;;;5093628;28;20227;-82
2023/06/26 06:49:19;;;;;;;2.77;2.57;;;;;;;;;;5107955;28;20210;-83
2023/06/26 06:51:47;;;;;;;3.47;2.13;;;;;;;;;;5105701;28;20220;-82
2023/06/26 06:54:16;;;;;;;4.43;2.70;;;;;;;;;;5108867;28;20211;-83
2023/06/26 06:56:43;;;;;;;5.43;2.60;;;;;;;;;;5104422;28;20207;-83
2023/06/26 06:59:13;;;;;;;2.33;2.17;;;;;;;;;;5108487;28;20203;-84
2023/06/26 07:01:41;;;;;;;1.90;1.80;;;;;;;;;;5104978;28;20215;-83
2023/06/26 07:04:07;;;;;;;2.07;1.97;;;;;;;;;;5106178;28;20206;-84
2023/06/26 07:06:34;;;;;;;2.23;1.90;;;;;;;;;;5093237;28;20235;-85
2023/06/26 07:09:02;;;;;;;2.27;2.03;;;;;;;;;;5109706;28;20678;-85
2023/06/26 07:11:29;;;;;;;2.70;1.97;;;;;;;;;;5113198;28;20294;-85
2023/06/26 07:13:56;;;;;;;1.83;1.63;;;;;;;;;;5095765;28;20614;-85
2023/06/26 07:16:23;;;;;;;2.00;1.83;;;;;;;;;;5093279;28;20219;-84
2023/06/26 07:18:52;;;;;;;2.63;1.70;;;;;;;;;;5096963;28;20199;-83
2023/06/26 07:21:19;;;;;;;1.43;1.33;;;;;;;;;;5102465;28;20235;-83
2023/06/26 07:23:46;;;;;;;1.60;1.50;;;;;;;;;;5106301;28;20279;-83
2023/06/26 07:26:15;;;;;;;1.60;1.50;;;;;;;;;;5103260;28;20739;-83
2023/06/26 07:28:42;;;;;;;1.83;1.63;;;;;;;;;;5095087;28;20196;-83
2023/06/26 07:31:09;;;;;;;1.93;1.80;;;;;;;;;;5104052;28;20290;-82
2023/06/26 07:33:36;;;;;;;1.83;1.73;;;;;;;;;;5107615;28;20204;-82
2023/06/26 07:36:03;;;;;;;1.73;1.63;;;;;;;;;;5104657;28;20200;-82
2023/06/26 07:38:30;;;;;;;1.80;1.70;;;;;;;;;;5093909;28;20212;-82
2023/06/26 07:40:57;;;;;;;1.70;1.60;;;;;;;;;;5092696;28;20204;-82
2023/06/26 07:43:25;;;;;;;1.77;1.50;;;;;;;;;;5091864;28;20197;-82
2023/06/26 07:45:53;;;;;;;1.90;1.50;;;;;;;;;;5105517;28;20200;-82
2023/06/26 07:48:20;;;;;;;1.87;1.77;;;;;;;;;;5092230;28;20212;-82
2023/06/26 07:50:46;;;;;;;1.53;1.17;;;;;;;;;;5104984;28;20674;-82
2023/06/26 07:53:13;;;;;;;1.60;1.50;;;;;;;;;;5098642;28;20557;-82
2023/06/26 07:55:40;;;;;;;1.70;1.60;;;;;;;;;;5099522;28;20560;-82
2023/06/26 07:58:07;;;;;;;1.87;1.73;;;;;;;;;;5096882;28;20218;-82
2023/06/26 08:00:36;;;;;;;1.40;1.30;;;;;;;;;;5092685;28;20200;-84
2023/06/26 08:03:03;;;;;;;1.70;1.60;;;;;;;;;;5104650;28;20206;-82
2023/06/26 08:05:32;;;;;;;1.50;1.40;;;;;;;;;;5092591;28;20283;-81
2023/06/26 08:07:59;;;;;;;2.53;1.47;;;;;;;;;;5104210;28;20227;-82
2023/06/26 08:10:26;;;;;;;1.40;1.30;;;;;;;;;;5091918;28;20197;-80
2023/06/26 08:12:53;;;;;;;1.60;1.50;;;;;;;;;;5100360;28;20206;-80
2023/06/26 08:15:20;;;;;;;1.47;1.37;;;;;;;;;;5110333;28;20206;-81
2023/06/26 08:17:50;;;;;;;1.83;1.50;;;;;;;;;;5100273;28;20206;-81
2023/06/26 08:20:19;;;;;;;1.23;1.13;;;;;;;;;;5111800;28;20195;-81
2023/06/26 08:22:47;;;;;;;1.43;1.23;;;;;;;;;;5111997;28;20207;-81
2023/06/26 08:25:15;;;;;;;1.63;1.53;;;;;;;;;;5095638;28;20211;-80
2023/06/26 08:27:41;;;;;;;1.83;1.47;;;;;;;;;;5101077;28;20215;-81
2023/06/26 08:30:09;;;;;;;1.50;1.40;;;;;;;;;;5095560;28;20202;-81
2023/06/26 08:32:36;;;;;;;1.93;1.50;;;;;;;;;;5101308;28;20206;-81
2023/06/26 08:35:05;;;;;;;1.70;1.60;;;;;;;;;;5111406;28;20211;-81
2023/06/26 08:37:32;;;;;;;1.57;1.47;;;;;;;;;;5111917;28;20228;-81
2023/06/26 08:39:59;;;;;;;1.63;1.50;;;;;;;;;;5107133;28;20675;-81
2023/06/26 08:42:26;;;;;;;1.70;1.60;;;;;;;;;;5102353;28;20207;-82
2023/06/26 08:44:53;;;;;;;1.40;1.30;;;;;;;;;;5093557;28;20203;-81
2023/06/26 08:47:21;;;;;;;1.33;1.23;;;;;;;;;;5102994;28;20316;-82
2023/06/26 08:49:51;;;;;;;2.13;1.47;;;;;;;;;;5111060;28;20260;-82
2023/06/26 08:52:24;;;;;;;1.83;1.73;;;;;;;;;;5099035;28;20650;-82
2023/06/26 08:54:54;;;;;;;1.97;1.63;;;;;;;;;;5104579;28;20207;-82
2023/06/26 08:57:22;;;;;;;1.77;1.67;;;;;;;;;;5091718;28;20204;-82
2023/06/26 08:59:49;;;;;;;2.07;1.97;;;;;;;;;;5103726;28;20209;-82
2023/06/26 09:02:16;;;;;;;1.80;1.70;;;;;;;;;;5105725;28;20203;-82
2023/06/26 09:04:43;;;;;;;2.87;2.10;;;;;;;;;;5111762;28;20619;-83
2023/06/26 09:07:12;;;;;;;2.53;2.33;;;;;;;;;;5097484;28;20598;-82
2023/06/26 09:09:40;;;;;;;2.30;2.10;;;;;;;;;;5102838;28;20200;-82
2023/06/26 09:12:09;;;;;;;3.20;2.40;;;;;;;;;;5104215;28;20218;-83
2023/06/26 09:14:36;;;;;;;3.97;2.33;;;;;;;;;;5100374;28;20203;-82
2023/06/26 09:17:04;;;;;;;2.93;2.37;;;;;;;;;;5110946;28;20203;-81
2023/06/26 09:19:30;;;;;;;2.67;2.47;;;;;;;;;;5101185;28;20211;-84
2023/06/26 09:21:58;;;;;;;2.23;2.03;;;;;;;;;;5094329;28;20195;-83
2023/06/26 09:24:26;;;;;;;2.40;2.20;;;;;;;;;;5100350;28;20207;-84
2023/06/26 09:26:54;;;;;;;2.50;2.27;;;;;;;;;;5090625;28;20200;-84
2023/06/26 09:29:21;;;;;;;2.33;2.13;;;;;;;;;;5100908;28;20192;-83
2023/06/26 09:31:48;;;;;;;2.03;1.83;;;;;;;;;;5093623;28;20197;-84
2023/06/26 09:34:15;;;;;;;3.83;2.13;;;;;;;;;;5101366;28;20208;-84
2023/06/26 09:36:46;;;;;;;2.07;1.97;;;;;;;;;;5106868;28;20224;-84
2023/06/26 10:36:31;;;;;;;4.07;3.67;;;;;;;;;;4838403;28;20231;-85
2023/06/26 10:38:59;;;;;;;3.17;2.83;;;;;;;;;;5105832;28;20200;-85
2023/06/26 10:41:26;;;;;;;3.40;3.10;;;;;;;;;;5109537;28;20207;-85
2023/06/26 10:44:08;;;;;;;3.03;2.80;;;;;;;;;;5104708;28;20204;-85
2023/06/26 10:46:35;;;;;;;6.40;3.33;;;;;;;;;;5111079;28;20199;-84
2023/06/26 10:49:03;;;;;;;4.30;3.00;;;;;;;;;;5102529;28;20307;-86
2023/06/26 10:51:31;;;;;;;5.83;3.90;;;;;;;;;;5112177;28;20256;-85
2023/06/26 10:53:58;;;;;;;4.90;3.40;;;;;;;;;;5113629;28;20211;-84
2023/06/26 10:56:44;;;;;;;3.23;2.93;;;;;;;;;;5100120;28;20200;-85
2023/06/26 10:59:19;;;;;;;4.07;3.67;;;;;;;;;;5099931;28;20574;-84
2023/06/26 11:01:46;;;;;;;5.70;2.70;;;;;;;;;;5113051;28;20588;-84
2023/06/26 11:04:16;;;;;;;12.37;3.57;;;;;;;;;;5097254;28;20228;-85
2023/06/26 11:06:47;;;;;;;4.37;3.50;;;;;;;;;;5093265;28;20200;-84
2023/06/26 11:09:16;;;;;;;3.83;3.50;;;;;;;;;;5092772;28;20698;-84
2023/06/26 11:12:07;;;;;;;3.83;3.13;;;;;;;;;;5092959;28;20211;-84
2023/06/26 11:14:34;;;;;;;3.73;2.97;;;;;;;;;;5093331;28;20208;-84
2023/06/26 11:17:04;;;;;;;3.77;3.30;;;;;;;;;;5106917;28;20223;-84
2023/06/26 11:19:31;;;;;;;4.23;3.80;;;;;;;;;;5092977;28;20196;-83
2023/06/26 11:22:04;;;;;;;7.63;3.63;;;;;;;;;;5108006;28;20252;-83
2023/06/26 11:24:32;;;;;;;3.87;3.47;;;;;;;;;;5103612;28;20269;-83
2023/06/26 11:27:02;;;;;;;5.50;3.20;;;;;;;;;;5109430;28;20252;-82
2023/06/26 11:29:29;;;;;;;3.80;3.50;;;;;;;;;;5113157;28;20229;-83
2023/06/26 11:32:01;;;;;;;4.43;3.37;;;;;;;;;;5098758;28;20597;-83
2023/06/26 11:34:31;;;;;;;3.43;3.13;;;;;;;;;;5113032;28;20231;-83
2023/06/26 11:37:01;;;;;;;7.43;3.77;;;;;;;;;;5093144;28;20204;-83
2023/06/26 11:39:29;;;;;;;3.67;3.37;;;;;;;;;;5105417;28;20206;-81
2023/06/26 11:41:56;;;;;;;4.53;3.23;;;;;;;;;;5099092;28;20202;-82
2023/06/26 11:44:23;;;;;;;4.50;3.80;;;;;;;;;;5099985;28;20200;-82
2023/06/26 11:46:54;;;;;;;4.00;3.37;;;;;;;;;;5106057;28;20557;-83
2023/06/26 11:49:23;;;;;;;3.70;3.37;;;;;;;;;;5092597;28;20231;-81
2023/06/26 11:51:49;;;;;;;7.07;3.53;;;;;;;;;;5104701;28;20218;-83
2023/06/26 11:54:23;;;;;;;4.10;3.30;;;;;;;;;;5093288;28;20208;-82
2023/06/26 11:56:56;;;;;;;4.87;3.10;;;;;;;;;;5103310;28;20204;-82
2023/06/26 11:59:23;;;;;;;4.30;3.30;;;;;;;;;;5095647;28;20384;-82
2023/06/26 12:01:51;;;;;;;5.10;3.23;;;;;;;;;;5102213;28;20205;-82
2023/06/26 12:04:22;;;;;;;6.27;3.67;;;;;;;;;;5105692;28;20208;-81
2023/06/26 12:06:51;;;;;;;3.97;3.53;;;;;;;;;;5103009;28;20231;-82
2023/06/26 12:09:19;;;;;;;3.57;3.27;;;;;;;;;;5112204;28;20234;-81
2023/06/26 12:11:48;;;;;;;4.33;3.30;;;;;;;;;;5112134;28;20199;-82
2023/06/26 12:14:18;;;;;;;6.83;4.00;;;;;;;;;;5112089;28;20227;-82
2023/06/26 12:16:45;;;;;;;4.00;3.10;;;;;;;;;;5112131;28;20203;-82
2023/06/26 12:19:12;;;;;;;3.97;3.60;;;;;;;;;;5111736;28;20192;-82
2023/06/26 12:21:47;;;;;;;7.83;3.43;;;;;;;;;;5111988;28;20199;-82
2023/06/26 12:24:15;;;;;;;5.45;3.45;;;;;;;;;;5091926;28;20632;-82
2023/06/26 12:26:43;;;;;;;5.03;3.80;;;;;;;;;;5093268;28;20257;-81
2023/06/26 12:29:12;;;;;;;4.15;3.83;;;;;;;;;;5102643;28;20602;-83
2023/06/26 12:31:42;;;;;;;8.20;3.33;;;;;;;;;;5105075;28;20235;-82
2023/06/26 12:34:16;;;;;;;5.78;4.18;;;;;;;;;;5101145;28;20314;-82
2023/06/26 12:36:44;;;;;;;3.90;3.60;;;;;;;;;;5107842;28;20232;-82
2023/06/26 12:39:12;;;;;;;4.38;4.07;;;;;;;;;;5101285;28;20203;-82
2023/06/26 12:41:48;;;;;;;5.90;3.90;;;;;;;;;;5107683;28;20632;-82
2023/06/26 12:44:22;;;;;;;5.00;4.03;;;;;;;;;;5103548;28;20195;-82
2023/06/26 12:46:54;;;;;;;3.80;3.50;;;;;;;;;;5104868;28;20208;-81
2023/06/26 12:49:21;;;;;;;4.93;4.20;;;;;;;;;;5104450;28;20318;-81
2023/06/26 12:51:48;;;;;;;4.70;3.87;;;;;;;;;;5098525;28;20757;-82
2023/06/26 12:54:15;;;;;;;4.33;3.93;;;;;;;;;;5110610;28;20203;-82
2023/06/26 12:56:41;;;;;;;4.13;3.73;;;;;;;;;;5098820;28;20203;-82
2023/06/26 12:59:08;;;;;;;5.30;3.83;;;;;;;;;;5096519;28;20200;-82
2023/06/26 13:01:35;;;;;;;6.10;3.53;;;;;;;;;;5090386;28;20200;-81
2023/06/26 13:04:04;;;;;;;7.87;3.77;;;;;;;;;;5104332;28;20206;-81
2023/06/26 13:06:30;;;;;;;5.22;3.38;;;;;;;;;;5099949;28;20298;-81
2023/06/26 13:08:58;;;;;;;3.90;3.60;;;;;;;;;;5097414;28;20220;-82
2023/06/26 13:11:25;;;;;;;4.70;3.47;;;;;;;;;;5102482;28;20200;-82
2023/06/26 13:13:52;;;;;;;6.35;3.60;;;;;;;;;;5106717;28;20208;-81
2023/06/26 13:16:19;;;;;;;4.00;3.40;;;;;;;;;;5102033;28;20199;-82
2023/06/26 13:18:47;;;;;;;4.68;4.03;;;;;;;;;;5106759;28;20294;-82
2023/06/26 13:21:16;;;;;;;3.42;3.17;;;;;;;;;;5101587;28;20224;-82
2023/06/26 13:23:43;;;;;;;5.05;3.50;;;;;;;;;;5106573;28;20701;-82
2023/06/26 13:26:10;;;;;;;4.75;3.90;;;;;;;;;;5110879;28;20210;-82
2023/06/26 13:28:37;;;;;;;4.20;3.67;;;;;;;;;;5097241;28;20288;-82
2023/06/26 13:31:04;;;;;;;3.80;3.50;;;;;;;;;;5100190;28;20238;-81
2023/06/26 13:33:31;;;;;;;5.50;4.65;;;;;;;;;;5104276;28;20783;-82
2023/06/26 13:35:58;;;;;;;7.28;4.22;;;;;;;;;;5101992;28;20563;-81
2023/06/26 13:38:26;;;;;;;5.97;4.40;;;;;;;;;;5096786;28;20681;-81
2023/06/26 13:40:53;;;;;;;7.10;3.63;;;;;;;;;;5111123;28;20214;-82
2023/06/26 13:43:21;;;;;;;4.13;3.80;;;;;;;;;;5097324;28;20652;-82
2023/06/26 13:45:48;;;;;;;4.28;3.90;;;;;;;;;;5098597;28;20208;-82
2023/06/26 13:48:15;;;;;;;8.00;4.15;;;;;;;;;;5109546;28;20200;-82
2023/06/26 13:50:42;;;;;;;7.72;4.53;;;;;;;;;;5098587;28;20208;-82
2023/06/26 13:53:09;;;;;;;5.28;4.80;;;;;;;;;;5109653;28;20249;-82
2023/06/26 13:55:38;;;;;;;5.05;3.97;;;;;;;;;;5111002;28;20204;-82
2023/06/26 13:58:05;;;;;;;7.63;4.72;;;;;;;;;;5110830;28;20224;-81
2023/06/26 14:00:33;;;;;;;7.53;4.38;;;;;;;;;;5111101;28;20282;-82
2023/06/26 14:03:00;;;;;;;8.23;5.72;;;;;;;;;;5090173;28;20196;-82
2023/06/26 14:05:27;;;;;;;6.32;3.75;;;;;;;;;;5103817;28;20261;-82
2023/06/26 14:07:54;;;;;;;4.13;3.72;;;;;;;;;;5097442;28;20196;-82
2023/06/26 14:10:21;;;;;;;6.27;3.97;;;;;;;;;;5110142;28;20230;-82
2023/06/26 14:12:50;;;;;;;3.63;3.33;;;;;;;;;;5110577;28;20689;-82
2023/06/26 14:15:17;;;;;;;7.95;4.00;;;;;;;;;;5108887;28;20745;-82
2023/06/26 14:17:44;;;;;;;4.30;3.88;;;;;;;;;;5098352;28;20195;-83
2023/06/26 14:20:13;;;;;;;9.05;4.47;;;;;;;;;;5097080;28;20196;-82
2023/06/26 14:22:39;;;;;;;4.07;3.67;;;;;;;;;;5101491;28;20212;-82
2023/06/26 14:25:07;;;;;;;4.27;3.87;;;;;;;;;;5105671;28;20207;-82
2023/06/26 14:27:34;;;;;;;5.28;4.07;;;;;;;;;;5102274;28;20201;-82
2023/06/26 14:30:05;;;;;;;5.70;3.85;;;;;;;;;;5103685;28;20257;-82
2023/06/26 14:32:32;;;;;;;6.77;4.33;;;;;;;;;;5090021;28;20621;-82
2023/06/26 14:34:59;;;;;;;3.83;3.50;;;;;;;;;;5105057;28;20231;-83
2023/06/26 14:37:26;;;;;;;4.37;3.77;;;;;;;;;;5103017;28;20196;-82
2023/06/26 14:39:54;;;;;;;8.47;4.77;;;;;;;;;;5100423;28;20201;-84
2023/06/26 14:42:20;;;;;;;6.40;3.60;;;;;;;;;;5114340;28;20195;-83
2023/06/26 14:44:49;;;;;;;6.87;4.57;;;;;;;;;;5111156;28;20670;-84
2023/06/26 14:47:18;;;;;;;7.33;3.50;;;;;;;;;;5103605;28;20222;-84
2023/06/26 14:49:45;;;;;;;4.27;3.17;;;;;;;;;;5110045;28;20216;-85
2023/06/26 14:55:33;;;;;;;8.33;3.67;;;;;;;;;;5104812;28;20754;-81
2023/06/26 14:58:01;;;;;;;6.67;3.63;;;;;;;;;;5113075;28;20223;-81
2023/06/26 15:00:28;;;;;;;5.67;3.33;;;;;;;;;;5102009;28;20201;-82
2023/06/26 15:02:58;;;;;;;3.93;3.63;;;;;;;;;;5106864;28;20275;-82
2023/06/26 15:05:25;;;;;;;4.17;3.03;;;;;;;;;;5101264;28;20213;-83
2023/06/26 15:07:52;;;;;;;6.73;3.67;;;;;;;;;;5103279;28;20209;-81
2023/06/26 15:10:18;;;;;;;6.33;3.63;;;;;;;;;;5095138;28;20285;-83
2023/06/26 15:12:45;;;;;;;3.70;3.10;;;;;;;;;;5103359;28;20694;-83
2023/06/26 15:15:12;;;;;;;3.03;2.67;;;;;;;;;;5095957;28;20218;-82
2023/06/26 15:17:39;;;;;;;4.13;3.03;;;;;;;;;;5093108;28;20196;-82
2023/06/26 15:20:11;;;;;;;2.50;2.30;;;;;;;;;;5111587;28;20636;-82
2023/06/26 15:22:40;;;;;;;2.97;2.70;;;;;;;;;;5092793;28;20211;-81
2023/06/26 15:25:08;;;;;;;2.80;2.60;;;;;;;;;;5094456;28;20200;-82
2023/06/26 15:27:35;;;;;;;3.60;3.00;;;;;;;;;;5104220;28;20205;-82
2023/06/26 15:30:02;;;;;;;3.70;2.67;;;;;;;;;;5105909;28;20257;-82
2023/06/26 15:32:28;;;;;;;3.17;2.87;;;;;;;;;;5101191;28;20211;-81
2023/06/26 15:34:56;;;;;;;4.07;3.20;;;;;;;;;;5105751;28;20277;-82
2023/06/26 15:37:24;;;;;;;5.47;2.50;;;;;;;;;;5109109;28;20204;-82
2023/06/26 15:39:51;;;;;;;3.30;2.43;;;;;;;;;;5103001;28;20308;-82
2023/06/26 15:42:17;;;;;;;2.63;2.20;;;;;;;;;;5108781;28;20193;-82
2023/06/26 15:44:44;;;;;;;2.63;2.43;;;;;;;;;;5102629;28;20200;-82
2023/06/26 15:47:11;;;;;;;2.40;2.20;;;;;;;;;;5112287;28;20286;-82